sensor_id;sensor_type;location;lat;lon;timestamp;temperature;humidity
66140;DHT22;52945;51.908;8.364;2024-03-22T00:01:08;12.30;67.80
66140;DHT22;52945;51.908;8.364;2024-03-22T00:04:09;12.30;67.60
66140;DHT22;52945;51.908;8.364;2024-03-22T00:07:10;12.40;67.70
66140;DHT22;52945;51.908;8.364;2024-03-22T00:10:10;12.40;67.40
66140;DHT22;52945;51.908;8.364;2024-03-22T00:13:11;12.40;67.40
66140;DHT22;52945;51.908;8.364;2024-03-22T00:16:11;12.40;67.40
66140;DHT22;52945;51.908;8.364;2024-03-22T00:19:12;12.40;67.60
66140;DHT22;52945;51.908;8.364;2024-03-22T00:22:13;12.40;67.70
66140;DHT22;52945;51.908;8.364;2024-03-22T00:25:13;12.50;67.50
66140;DHT22;52945;51.908;8.364;2024-03-22T00:28:14;12.40;67.50
66140;DHT22;52945;51.908;8.364;2024-03-22T00:31:15;12.50;67.50
66140;DHT22;52945;51.908;8.364;2024-03-22T00:34:16;12.50;67.40
66140;DHT22;52945;51.908;8.364;2024-03-22T00:37:16;12.50;67.60
66140;DHT22;52945;51.908;8.364;2024-03-22T00:40:17;12.50;67.70
66140;DHT22;52945;51.908;8.364;2024-03-22T00:43:18;12.50;67.90
66140;DHT22;52945;51.908;8.364;2024-03-22T00:46:19;12.50;68.20
66140;DHT22;52945;51.908;8.364;2024-03-22T00:49:20;12.40;68.20
66140;DHT22;52945;51.908;8.364;2024-03-22T00:52:20;12.50;68.40
66140;DHT22;52945;51.908;8.364;2024-03-22T00:55:21;12.50;68.30
66140;DHT22;52945;51.908;8.364;2024-03-22T00:58:21;12.50;68.40
66140;DHT22;52945;51.908;8.364;2024-03-22T01:01:22;12.50;68.30
66140;DHT22;52945;51.908;8.364;2024-03-22T01:04:25;12.60;68.40
66140;DHT22;52945;51.908;8.364;2024-03-22T01:07:26;12.50;68.50
66140;DHT22;52945;51.908;8.364;2024-03-22T01:10:27;12.60;68.60
66140;DHT22;52945;51.908;8.364;2024-03-22T01:13:27;12.60;68.80
66140;DHT22;52945;51.908;8.364;2024-03-22T01:16:28;12.60;68.80
66140;DHT22;52945;51.908;8.364;2024-03-22T01:19:28;12.60;68.90
66140;DHT22;52945;51.908;8.364;2024-03-22T01:22:29;12.60;68.70
66140;DHT22;52945;51.908;8.364;2024-03-22T01:25:30;12.60;68.70
66140;DHT22;52945;51.908;8.364;2024-03-22T01:28:30;12.60;68.80
66140;DHT22;52945;51.908;8.364;2024-03-22T01:31:31;12.70;68.80
66140;DHT22;52945;51.908;8.364;2024-03-22T01:34:31;12.70;68.90
66140;DHT22;52945;51.908;8.364;2024-03-22T01:37:32;12.60;69.10
66140;DHT22;52945;51.908;8.364;2024-03-22T01:40:33;12.60;69.20
66140;DHT22;52945;51.908;8.364;2024-03-22T01:43:33;12.70;69.30
66140;DHT22;52945;51.908;8.364;2024-03-22T01:46:34;12.70;69.00
66140;DHT22;52945;51.908;8.364;2024-03-22T01:49:35;12.70;69.00
66140;DHT22;52945;51.908;8.364;2024-03-22T01:52:36;12.70;69.20
66140;DHT22;52945;51.908;8.364;2024-03-22T01:55:37;12.70;69.10
66140;DHT22;52945;51.908;8.364;2024-03-22T01:58:37;12.70;69.10
66140;DHT22;52945;51.908;8.364;2024-03-22T02:01:38;12.70;69.00
66140;DHT22;52945;51.908;8.364;2024-03-22T02:04:39;12.70;69.00
66140;DHT22;52945;51.908;8.364;2024-03-22T02:07:41;12.70;69.10
66140;DHT22;52945;51.908;8.364;2024-03-22T02:10:43;12.70;69.10
66140;DHT22;52945;51.908;8.364;2024-03-22T02:13:43;12.70;69.30
66140;DHT22;52945;51.908;8.364;2024-03-22T02:16:44;12.70;69.20
66140;DHT22;52945;51.908;8.364;2024-03-22T02:19:45;12.70;69.40
66140;DHT22;52945;51.908;8.364;2024-03-22T02:22:46;12.70;69.50
66140;DHT22;52945;51.908;8.364;2024-03-22T02:25:46;12.70;69.50
66140;DHT22;52945;51.908;8.364;2024-03-22T02:28:47;12.70;69.50
66140;DHT22;52945;51.908;8.364;2024-03-22T02:31:47;12.70;69.40
66140;DHT22;52945;51.908;8.364;2024-03-22T02:34:48;12.70;69.40
66140;DHT22;52945;51.908;8.364;2024-03-22T02:37:48;12.70;69.50
66140;DHT22;52945;51.908;8.364;2024-03-22T02:40:52;12.70;69.40
66140;DHT22;52945;51.908;8.364;2024-03-22T02:43:52;12.70;69.40
66140;DHT22;52945;51.908;8.364;2024-03-22T02:46:53;12.70;69.10
66140;DHT22;52945;51.908;8.364;2024-03-22T02:49:54;12.70;69.00
66140;DHT22;52945;51.908;8.364;2024-03-22T02:52:54;12.70;69.20
66140;DHT22;52945;51.908;8.364;2024-03-22T02:55:55;12.70;69.10
66140;DHT22;52945;51.908;8.364;2024-03-22T02:58:55;12.70;69.00
66140;DHT22;52945;51.908;8.364;2024-03-22T03:01:56;12.70;69.20
66140;DHT22;52945;51.908;8.364;2024-03-22T03:04:56;12.70;69.10
66140;DHT22;52945;51.908;8.364;2024-03-22T03:07:58;12.70;69.00
66140;DHT22;52945;51.908;8.364;2024-03-22T03:10:58;12.70;69.10
66140;DHT22;52945;51.908;8.364;2024-03-22T03:13:59;12.70;69.30
66140;DHT22;52945;51.908;8.364;2024-03-22T03:17:00;12.70;69.50
66140;DHT22;52945;51.908;8.364;2024-03-22T03:20:00;12.70;69.70
66140;DHT22;52945;51.908;8.364;2024-03-22T03:23:01;12.70;69.80
66140;DHT22;52945;51.908;8.364;2024-03-22T03:26:02;12.70;69.90
66140;DHT22;52945;51.908;8.364;2024-03-22T03:29:02;12.80;70.00
66140;DHT22;52945;51.908;8.364;2024-03-22T03:32:03;12.70;69.80
66140;DHT22;52945;51.908;8.364;2024-03-22T03:35:04;12.70;69.70
66140;DHT22;52945;51.908;8.364;2024-03-22T03:38:05;12.70;69.60
66140;DHT22;52945;51.908;8.364;2024-03-22T03:41:06;12.70;69.80
66140;DHT22;52945;51.908;8.364;2024-03-22T03:44:06;12.70;69.80
66140;DHT22;52945;51.908;8.364;2024-03-22T03:47:07;12.60;70.20
66140;DHT22;52945;51.908;8.364;2024-03-22T03:50:08;12.60;70.40
66140;DHT22;52945;51.908;8.364;2024-03-22T03:53:08;12.60;70.40
66140;DHT22;52945;51.908;8.364;2024-03-22T03:56:09;12.60;70.50
66140;DHT22;52945;51.908;8.364;2024-03-22T03:59:09;12.60;70.60
66140;DHT22;52945;51.908;8.364;2024-03-22T04:02:10;12.60;70.60
66140;DHT22;52945;51.908;8.364;2024-03-22T04:05:11;12.60;70.30
66140;DHT22;52945;51.908;8.364;2024-03-22T04:08:12;12.60;70.40
66140;DHT22;52945;51.908;8.364;2024-03-22T04:11:12;12.70;70.50
66140;DHT22;52945;51.908;8.364;2024-03-22T04:14:13;12.60;70.50
66140;DHT22;52945;51.908;8.364;2024-03-22T04:17:14;12.60;70.60
66140;DHT22;52945;51.908;8.364;2024-03-22T04:20:14;12.60;70.40
66140;DHT22;52945;51.908;8.364;2024-03-22T04:23:15;12.60;70.50
66140;DHT22;52945;51.908;8.364;2024-03-22T04:26:15;12.60;70.60
66140;DHT22;52945;51.908;8.364;2024-03-22T04:29:16;12.60;70.80
66140;DHT22;52945;51.908;8.364;2024-03-22T04:32:18;12.60;70.90
66140;DHT22;52945;51.908;8.364;2024-03-22T04:35:18;12.60;70.90
66140;DHT22;52945;51.908;8.364;2024-03-22T04:38:19;12.60;71.10
66140;DHT22;52945;51.908;8.364;2024-03-22T04:41:20;12.50;71.50
66140;DHT22;52945;51.908;8.364;2024-03-22T04:44:20;12.50;71.40
66140;DHT22;52945;51.908;8.364;2024-03-22T04:47:21;12.50;71.20
66140;DHT22;52945;51.908;8.364;2024-03-22T04:50:21;12.50;71.40
66140;DHT22;52945;51.908;8.364;2024-03-22T04:53:22;12.50;71.40
66140;DHT22;52945;51.908;8.364;2024-03-22T04:56:23;12.50;71.50
66140;DHT22;52945;51.908;8.364;2024-03-22T04:59:24;12.50;71.60
66140;DHT22;52945;51.908;8.364;2024-03-22T05:02:24;12.60;71.80
66140;DHT22;52945;51.908;8.364;2024-03-22T05:05:25;12.60;71.90
66140;DHT22;52945;51.908;8.364;2024-03-22T05:08:27;12.60;71.90
66140;DHT22;52945;51.908;8.364;2024-03-22T05:11:27;12.60;71.80
66140;DHT22;52945;51.908;8.364;2024-03-22T05:14:28;12.60;71.90
66140;DHT22;52945;51.908;8.364;2024-03-22T05:17:29;12.60;71.90
66140;DHT22;52945;51.908;8.364;2024-03-22T05:20:32;12.70;72.00
66140;DHT22;52945;51.908;8.364;2024-03-22T05:23:32;12.70;71.80
66140;DHT22;52945;51.908;8.364;2024-03-22T05:26:33;12.70;71.70
66140;DHT22;52945;51.908;8.364;2024-03-22T05:29:36;12.60;72.30
66140;DHT22;52945;51.908;8.364;2024-03-22T05:32:37;12.70;72.30
66140;DHT22;52945;51.908;8.364;2024-03-22T05:35:38;12.70;72.10
66140;DHT22;52945;51.908;8.364;2024-03-22T05:38:39;12.70;72.00
66140;DHT22;52945;51.908;8.364;2024-03-22T05:41:39;12.80;72.10
66140;DHT22;52945;51.908;8.364;2024-03-22T05:44:40;12.80;72.00
66140;DHT22;52945;51.908;8.364;2024-03-22T05:47:40;12.80;71.90
66140;DHT22;52945;51.908;8.364;2024-03-22T05:50:41;12.90;71.90
66140;DHT22;52945;51.908;8.364;2024-03-22T05:53:41;12.90;71.90
66140;DHT22;52945;51.908;8.364;2024-03-22T05:56:42;13.00;71.90
66140;DHT22;52945;51.908;8.364;2024-03-22T05:59:43;13.00;71.90
66140;DHT22;52945;51.908;8.364;2024-03-22T06:02:44;13.00;71.70
66140;DHT22;52945;51.908;8.364;2024-03-22T06:05:44;13.00;71.70
66140;DHT22;52945;51.908;8.364;2024-03-22T06:08:45;13.10;71.60
66140;DHT22;52945;51.908;8.364;2024-03-22T06:11:46;13.10;71.60
66140;DHT22;52945;51.908;8.364;2024-03-22T06:14:46;13.20;71.50
66140;DHT22;52945;51.908;8.364;2024-03-22T06:17:48;13.20;71.40
66140;DHT22;52945;51.908;8.364;2024-03-22T06:20:50;13.20;71.30
66140;DHT22;52945;51.908;8.364;2024-03-22T06:23:51;13.20;71.30
66140;DHT22;52945;51.908;8.364;2024-03-22T06:26:52;13.30;71.10
66140;DHT22;52945;51.908;8.364;2024-03-22T06:29:53;13.40;71.10
66140;DHT22;52945;51.908;8.364;2024-03-22T06:32:54;13.40;71.10
66140;DHT22;52945;51.908;8.364;2024-03-22T06:35:57;13.40;70.90
66140;DHT22;52945;51.908;8.364;2024-03-22T06:38:58;13.50;70.70
66140;DHT22;52945;51.908;8.364;2024-03-22T06:41:59;13.60;70.60
66140;DHT22;52945;51.908;8.364;2024-03-22T06:45:00;13.60;70.50
66140;DHT22;52945;51.908;8.364;2024-03-22T06:48:00;13.60;70.30
66140;DHT22;52945;51.908;8.364;2024-03-22T06:51:01;13.70;70.30
66140;DHT22;52945;51.908;8.364;2024-03-22T06:54:02;13.70;70.10
66140;DHT22;52945;51.908;8.364;2024-03-22T06:57:03;13.70;70.10
66140;DHT22;52945;51.908;8.364;2024-03-22T07:00:04;13.80;69.80
66140;DHT22;52945;51.908;8.364;2024-03-22T07:03:05;13.80;69.80
66140;DHT22;52945;51.908;8.364;2024-03-22T07:06:06;13.80;69.60
66140;DHT22;52945;51.908;8.364;2024-03-22T07:09:08;13.90;69.50
66140;DHT22;52945;51.908;8.364;2024-03-22T07:12:09;13.90;69.40
66140;DHT22;52945;51.908;8.364;2024-03-22T07:15:09;13.90;69.30
66140;DHT22;52945;51.908;8.364;2024-03-22T07:18:10;14.00;69.10
66140;DHT22;52945;51.908;8.364;2024-03-22T07:21:11;14.00;69.00
66140;DHT22;52945;51.908;8.364;2024-03-22T07:24:12;14.10;68.80
66140;DHT22;52945;51.908;8.364;2024-03-22T07:27:12;14.10;68.60
66140;DHT22;52945;51.908;8.364;2024-03-22T07:30:14;14.10;68.30
66140;DHT22;52945;51.908;8.364;2024-03-22T07:33:15;14.20;68.10
66140;DHT22;52945;51.908;8.364;2024-03-22T07:36:17;14.20;68.00
66140;DHT22;52945;51.908;8.364;2024-03-22T07:39:19;14.20;67.90
66140;DHT22;52945;51.908;8.364;2024-03-22T07:42:20;14.20;67.70
66140;DHT22;52945;51.908;8.364;2024-03-22T07:45:21;14.30;67.70
66140;DHT22;52945;51.908;8.364;2024-03-22T07:48:22;14.30;67.30
66140;DHT22;52945;51.908;8.364;2024-03-22T07:51:23;14.20;67.40
66140;DHT22;52945;51.908;8.364;2024-03-22T07:54:23;14.40;67.30
66140;DHT22;52945;51.908;8.364;2024-03-22T07:57:24;14.40;67.20
66140;DHT22;52945;51.908;8.364;2024-03-22T08:00:25;14.40;67.00
66140;DHT22;52945;51.908;8.364;2024-03-22T08:03:25;14.40;66.90
66140;DHT22;52945;51.908;8.364;2024-03-22T08:06:26;14.50;66.80
66140;DHT22;52945;51.908;8.364;2024-03-22T08:09:26;14.50;66.60
66140;DHT22;52945;51.908;8.364;2024-03-22T08:12:27;14.60;66.20
66140;DHT22;52945;51.908;8.364;2024-03-22T08:15:28;14.70;66.20
66140;DHT22;52945;51.908;8.364;2024-03-22T08:18:29;14.70;66.10
66140;DHT22;52945;51.908;8.364;2024-03-22T08:21:29;14.70;65.90
66140;DHT22;52945;51.908;8.364;2024-03-22T08:27:40;14.80;65.20
66140;DHT22;52945;51.908;8.364;2024-03-22T08:30:41;14.80;65.30
66140;DHT22;52945;51.908;8.364;2024-03-22T08:33:42;14.90;65.30
66140;DHT22;52945;51.908;8.364;2024-03-22T08:36:43;15.00;64.60
66140;DHT22;52945;51.908;8.364;2024-03-22T08:39:44;14.90;64.10
66140;DHT22;52945;51.908;8.364;2024-03-22T08:42:44;15.00;63.90
66140;DHT22;52945;51.908;8.364;2024-03-22T08:45:45;15.10;63.70
66140;DHT22;52945;51.908;8.364;2024-03-22T08:48:45;15.10;63.60
66140;DHT22;52945;51.908;8.364;2024-03-22T08:51:46;15.10;63.20
66140;DHT22;52945;51.908;8.364;2024-03-22T08:54:48;15.20;61.90
66140;DHT22;52945;51.908;8.364;2024-03-22T08:57:49;15.20;62.20
66140;DHT22;52945;51.908;8.364;2024-03-22T09:00:49;15.20;61.30
66140;DHT22;52945;51.908;8.364;2024-03-22T09:03:50;15.20;60.80
66140;DHT22;52945;51.908;8.364;2024-03-22T09:06:51;15.20;60.20
66140;DHT22;52945;51.908;8.364;2024-03-22T09:09:52;15.30;59.90
66140;DHT22;52945;51.908;8.364;2024-03-22T09:12:52;15.30;60.00
66140;DHT22;52945;51.908;8.364;2024-03-22T09:15:58;15.30;59.20
66140;DHT22;52945;51.908;8.364;2024-03-22T09:18:58;15.30;58.90
66140;DHT22;52945;51.908;8.364;2024-03-22T09:21:59;15.40;58.40
66140;DHT22;52945;51.908;8.364;2024-03-22T09:24:59;15.50;58.40
66140;DHT22;52945;51.908;8.364;2024-03-22T09:28:00;15.60;58.30
66140;DHT22;52945;51.908;8.364;2024-03-22T09:31:05;15.60;58.40
66140;DHT22;52945;51.908;8.364;2024-03-22T09:34:06;15.60;58.00
66140;DHT22;52945;51.908;8.364;2024-03-22T09:37:06;15.60;58.30
66140;DHT22;52945;51.908;8.364;2024-03-22T09:40:07;15.70;58.40
66140;DHT22;52945;51.908;8.364;2024-03-22T09:43:09;15.60;57.80
66140;DHT22;52945;51.908;8.364;2024-03-22T09:46:15;15.70;58.00
66140;DHT22;52945;51.908;8.364;2024-03-22T09:49:16;15.70;57.60
66140;DHT22;52945;51.908;8.364;2024-03-22T09:52:20;15.70;57.40
66140;DHT22;52945;51.908;8.364;2024-03-22T09:55:24;15.70;57.20
66140;DHT22;52945;51.908;8.364;2024-03-22T09:58:25;15.70;57.00
66140;DHT22;52945;51.908;8.364;2024-03-22T10:01:26;15.80;57.00
66140;DHT22;52945;51.908;8.364;2024-03-22T10:04:27;15.80;56.60
66140;DHT22;52945;51.908;8.364;2024-03-22T10:07:28;15.80;57.00
66140;DHT22;52945;51.908;8.364;2024-03-22T10:10:29;15.80;56.60
66140;DHT22;52945;51.908;8.364;2024-03-22T10:13:30;15.90;57.20
66140;DHT22;52945;51.908;8.364;2024-03-22T10:16:34;16.00;56.80
66140;DHT22;52945;51.908;8.364;2024-03-22T10:19:35;16.00;56.80
66140;DHT22;52945;51.908;8.364;2024-03-22T10:22:36;16.10;56.60
66140;DHT22;52945;51.908;8.364;2024-03-22T10:25:37;16.20;56.70
66140;DHT22;52945;51.908;8.364;2024-03-22T10:28:44;16.20;56.70
66140;DHT22;52945;51.908;8.364;2024-03-22T10:31:45;16.20;56.30
66140;DHT22;52945;51.908;8.364;2024-03-22T10:34:46;16.20;57.30
66140;DHT22;52945;51.908;8.364;2024-03-22T10:37:47;16.30;58.60
66140;DHT22;52945;51.908;8.364;2024-03-22T10:40:49;16.20;58.50
66140;DHT22;52945;51.908;8.364;2024-03-22T10:43:49;16.20;58.10
66140;DHT22;52945;51.908;8.364;2024-03-22T10:46:50;16.10;58.00
66140;DHT22;52945;51.908;8.364;2024-03-22T10:49:58;16.10;58.00
66140;DHT22;52945;51.908;8.364;2024-03-22T10:53:03;16.20;58.20
66140;DHT22;52945;51.908;8.364;2024-03-22T10:56:07;16.20;57.70
66140;DHT22;52945;51.908;8.364;2024-03-22T10:59:21;16.20;57.90
66140;DHT22;52945;51.908;8.364;2024-03-22T11:02:27;16.20;58.00
66140;DHT22;52945;51.908;8.364;2024-03-22T11:05:28;16.30;58.10
66140;DHT22;52945;51.908;8.364;2024-03-22T11:08:30;16.30;58.00
66140;DHT22;52945;51.908;8.364;2024-03-22T11:11:31;16.20;57.70
66140;DHT22;52945;51.908;8.364;2024-03-22T11:14:37;16.30;57.50
66140;DHT22;52945;51.908;8.364;2024-03-22T11:17:38;16.30;57.30
66140;DHT22;52945;51.908;8.364;2024-03-22T11:20:38;16.30;57.30
66140;DHT22;52945;51.908;8.364;2024-03-22T11:23:39;16.20;57.40
66140;DHT22;52945;51.908;8.364;2024-03-22T11:26:40;16.20;57.70
66140;DHT22;52945;51.908;8.364;2024-03-22T11:29:40;16.30;58.00
66140;DHT22;52945;51.908;8.364;2024-03-22T11:32:42;16.30;58.00
66140;DHT22;52945;51.908;8.364;2024-03-22T11:35:45;16.20;57.90
66140;DHT22;52945;51.908;8.364;2024-03-22T11:38:46;16.20;58.00
66140;DHT22;52945;51.908;8.364;2024-03-22T11:41:50;16.30;58.30
66140;DHT22;52945;51.908;8.364;2024-03-22T11:44:51;16.30;58.40
66140;DHT22;52945;51.908;8.364;2024-03-22T11:47:51;16.20;58.50
66140;DHT22;52945;51.908;8.364;2024-03-22T11:50:52;16.20;58.80
66140;DHT22;52945;51.908;8.364;2024-03-22T11:53:54;16.20;59.10
66140;DHT22;52945;51.908;8.364;2024-03-22T11:56:56;16.20;59.30
66140;DHT22;52945;51.908;8.364;2024-03-22T12:00:01;16.20;59.50
66140;DHT22;52945;51.908;8.364;2024-03-22T12:03:04;16.10;59.60
66140;DHT22;52945;51.908;8.364;2024-03-22T12:06:04;16.20;59.70
66140;DHT22;52945;51.908;8.364;2024-03-22T12:09:05;16.10;59.90
66140;DHT22;52945;51.908;8.364;2024-03-22T12:12:08;16.10;60.10
66140;DHT22;52945;51.908;8.364;2024-03-22T12:15:09;16.10;60.40
66140;DHT22;52945;51.908;8.364;2024-03-22T12:18:09;16.00;60.60
66140;DHT22;52945;51.908;8.364;2024-03-22T12:21:10;16.00;60.60
66140;DHT22;52945;51.908;8.364;2024-03-22T12:24:11;15.80;61.00
66140;DHT22;52945;51.908;8.364;2024-03-22T12:27:11;15.80;61.30
66140;DHT22;52945;51.908;8.364;2024-03-22T12:30:12;15.70;61.10
66140;DHT22;52945;51.908;8.364;2024-03-22T12:33:13;15.80;61.30
66140;DHT22;52945;51.908;8.364;2024-03-22T12:36:13;15.80;61.30
66140;DHT22;52945;51.908;8.364;2024-03-22T12:39:14;15.80;61.40
66140;DHT22;52945;51.908;8.364;2024-03-22T12:42:15;15.80;61.50
66140;DHT22;52945;51.908;8.364;2024-03-22T12:45:15;15.70;61.60
66140;DHT22;52945;51.908;8.364;2024-03-22T12:48:16;15.70;61.70
66140;DHT22;52945;51.908;8.364;2024-03-22T12:51:17;15.70;61.80
66140;DHT22;52945;51.908;8.364;2024-03-22T12:54:17;15.60;62.00
66140;DHT22;52945;51.908;8.364;2024-03-22T12:57:18;15.50;62.30
66140;DHT22;52945;51.908;8.364;2024-03-22T13:00:19;15.60;62.60
66140;DHT22;52945;51.908;8.364;2024-03-22T13:03:20;15.60;62.80
66140;DHT22;52945;51.908;8.364;2024-03-22T13:06:20;15.60;62.60
66140;DHT22;52945;51.908;8.364;2024-03-22T13:09:21;15.50;62.60
66140;DHT22;52945;51.908;8.364;2024-03-22T13:12:22;15.50;62.70
66140;DHT22;52945;51.908;8.364;2024-03-22T13:15:22;15.50;62.80
66140;DHT22;52945;51.908;8.364;2024-03-22T13:18:23;15.50;62.70
66140;DHT22;52945;51.908;8.364;2024-03-22T13:21:23;15.40;62.80
66140;DHT22;52945;51.908;8.364;2024-03-22T13:24:24;15.40;62.80
66140;DHT22;52945;51.908;8.364;2024-03-22T13:27:25;15.40;63.00
66140;DHT22;52945;51.908;8.364;2024-03-22T13:30:27;15.40;62.90
66140;DHT22;52945;51.908;8.364;2024-03-22T13:33:27;15.40;63.20
66140;DHT22;52945;51.908;8.364;2024-03-22T13:36:28;15.30;63.80
66140;DHT22;52945;51.908;8.364;2024-03-22T13:39:32;15.30;64.30
66140;DHT22;52945;51.908;8.364;2024-03-22T13:42:33;15.30;64.90
66140;DHT22;52945;51.908;8.364;2024-03-22T13:45:42;15.30;65.40
66140;DHT22;52945;51.908;8.364;2024-03-22T13:48:43;15.20;65.60
66140;DHT22;52945;51.908;8.364;2024-03-22T13:51:44;15.10;65.90
66140;DHT22;52945;51.908;8.364;2024-03-22T13:54:44;15.00;66.50
66140;DHT22;52945;51.908;8.364;2024-03-22T13:57:45;15.00;66.80
66140;DHT22;52945;51.908;8.364;2024-03-22T14:00:46;14.90;67.30
66140;DHT22;52945;51.908;8.364;2024-03-22T14:03:47;14.80;67.70
66140;DHT22;52945;51.908;8.364;2024-03-22T14:06:48;14.80;68.10
66140;DHT22;52945;51.908;8.364;2024-03-22T14:09:49;14.80;68.20
66140;DHT22;52945;51.908;8.364;2024-03-22T14:12:49;14.70;68.70
66140;DHT22;52945;51.908;8.364;2024-03-22T14:15:50;14.70;68.80
66140;DHT22;52945;51.908;8.364;2024-03-22T14:18:51;14.60;68.90
66140;DHT22;52945;51.908;8.364;2024-03-22T14:21:51;14.60;69.30
66140;DHT22;52945;51.908;8.364;2024-03-22T14:24:52;14.60;69.50
66140;DHT22;52945;51.908;8.364;2024-03-22T14:27:54;14.50;69.60
66140;DHT22;52945;51.908;8.364;2024-03-22T14:30:57;14.50;69.90
66140;DHT22;52945;51.908;8.364;2024-03-22T14:33:58;14.40;70.20
66140;DHT22;52945;51.908;8.364;2024-03-22T14:36:59;14.40;70.50
66140;DHT22;52945;51.908;8.364;2024-03-22T14:40:00;14.40;70.60
66140;DHT22;52945;51.908;8.364;2024-03-22T14:43:01;14.40;70.70
66140;DHT22;52945;51.908;8.364;2024-03-22T14:46:01;14.40;70.70
66140;DHT22;52945;51.908;8.364;2024-03-22T14:49:06;14.30;70.80
66140;DHT22;52945;51.908;8.364;2024-03-22T14:52:07;14.40;70.80
66140;DHT22;52945;51.908;8.364;2024-03-22T14:55:08;14.40;70.80
66140;DHT22;52945;51.908;8.364;2024-03-22T14:58:09;14.30;71.30
66140;DHT22;52945;51.908;8.364;2024-03-22T15:01:10;14.20;71.70
66140;DHT22;52945;51.908;8.364;2024-03-22T15:04:11;14.20;72.00
66140;DHT22;52945;51.908;8.364;2024-03-22T15:07:12;14.20;72.30
66140;DHT22;52945;51.908;8.364;2024-03-22T15:10:13;14.20;72.80
66140;DHT22;52945;51.908;8.364;2024-03-22T15:13:15;14.20;73.20
66140;DHT22;52945;51.908;8.364;2024-03-22T15:16:16;14.20;73.30
66140;DHT22;52945;51.908;8.364;2024-03-22T15:19:16;14.10;73.60
66140;DHT22;52945;51.908;8.364;2024-03-22T15:22:18;14.10;73.70
66140;DHT22;52945;51.908;8.364;2024-03-22T15:25:19;14.10;73.80
66140;DHT22;52945;51.908;8.364;2024-03-22T15:28:20;14.10;74.00
66140;DHT22;52945;51.908;8.364;2024-03-22T15:31:21;14.00;74.40
66140;DHT22;52945;51.908;8.364;2024-03-22T15:34:22;14.00;74.50
66140;DHT22;52945;51.908;8.364;2024-03-22T15:37:23;13.90;74.80
66140;DHT22;52945;51.908;8.364;2024-03-22T15:40:24;13.90;74.70
66140;DHT22;52945;51.908;8.364;2024-03-22T15:43:25;13.80;74.80
66140;DHT22;52945;51.908;8.364;2024-03-22T15:46:25;13.80;74.80
66140;DHT22;52945;51.908;8.364;2024-03-22T15:49:26;13.80;74.80
66140;DHT22;52945;51.908;8.364;2024-03-22T15:52:26;13.80;74.80
66140;DHT22;52945;51.908;8.364;2024-03-22T15:55:27;13.70;75.00
66140;DHT22;52945;51.908;8.364;2024-03-22T15:58:29;13.70;74.90
66140;DHT22;52945;51.908;8.364;2024-03-22T16:01:31;13.70;75.30
66140;DHT22;52945;51.908;8.364;2024-03-22T16:04:32;13.70;75.20
66140;DHT22;52945;51.908;8.364;2024-03-22T16:07:33;13.60;75.20
66140;DHT22;52945;51.908;8.364;2024-03-22T16:10:33;13.40;75.50
66140;DHT22;52945;51.908;8.364;2024-03-22T16:13:34;13.50;75.80
66140;DHT22;52945;51.908;8.364;2024-03-22T16:16:35;13.40;75.70
66140;DHT22;52945;51.908;8.364;2024-03-22T16:19:36;13.50;76.00
66140;DHT22;52945;51.908;8.364;2024-03-22T16:22:37;13.40;76.10
66140;DHT22;52945;51.908;8.364;2024-03-22T16:25:39;13.40;76.10
66140;DHT22;52945;51.908;8.364;2024-03-22T16:28:39;13.40;76.10
66140;DHT22;52945;51.908;8.364;2024-03-22T16:31:40;13.40;76.20
66140;DHT22;52945;51.908;8.364;2024-03-22T16:34:41;13.40;76.40
66140;DHT22;52945;51.908;8.364;2024-03-22T16:37:42;13.30;76.30
66140;DHT22;52945;51.908;8.364;2024-03-22T16:40:42;13.40;76.10
66140;DHT22;52945;51.908;8.364;2024-03-22T16:43:43;13.30;76.30
66140;DHT22;52945;51.908;8.364;2024-03-22T16:46:43;13.40;76.30
66140;DHT22;52945;51.908;8.364;2024-03-22T16:49:44;13.40;76.40
66140;DHT22;52945;51.908;8.364;2024-03-22T16:52:44;13.30;76.50
66140;DHT22;52945;51.908;8.364;2024-03-22T16:55:45;13.20;76.70
66140;DHT22;52945;51.908;8.364;2024-03-22T16:58:46;13.30;76.70
66140;DHT22;52945;51.908;8.364;2024-03-22T17:01:47;13.30;76.70
66140;DHT22;52945;51.908;8.364;2024-03-22T17:04:47;13.20;76.80
66140;DHT22;52945;51.908;8.364;2024-03-22T17:07:48;13.20;76.80
66140;DHT22;52945;51.908;8.364;2024-03-22T17:10:48;13.20;77.00
66140;DHT22;52945;51.908;8.364;2024-03-22T17:13:52;13.20;77.10
66140;DHT22;52945;51.908;8.364;2024-03-22T17:16:52;13.20;77.30
66140;DHT22;52945;51.908;8.364;2024-03-22T17:19:53;13.20;77.40
66140;DHT22;52945;51.908;8.364;2024-03-22T17:22:53;13.10;77.40
66140;DHT22;52945;51.908;8.364;2024-03-22T17:25:58;13.10;77.60
66140;DHT22;52945;51.908;8.364;2024-03-22T17:28:59;13.10;77.70
66140;DHT22;52945;51.908;8.364;2024-03-22T17:32:00;13.10;77.90
66140;DHT22;52945;51.908;8.364;2024-03-22T17:35:01;13.10;77.90
66140;DHT22;52945;51.908;8.364;2024-03-22T17:38:02;13.00;77.90
66140;DHT22;52945;51.908;8.364;2024-03-22T17:41:03;13.10;77.90
66140;DHT22;52945;51.908;8.364;2024-03-22T17:44:04;13.10;78.00
66140;DHT22;52945;51.908;8.364;2024-03-22T17:47:04;13.10;78.00
66140;DHT22;52945;51.908;8.364;2024-03-22T17:50:05;13.10;78.00
66140;DHT22;52945;51.908;8.364;2024-03-22T17:53:06;13.00;78.10
66140;DHT22;52945;51.908;8.364;2024-03-22T17:56:07;13.10;78.30
66140;DHT22;52945;51.908;8.364;2024-03-22T17:59:07;13.10;78.20
66140;DHT22;52945;51.908;8.364;2024-03-22T18:02:08;13.10;78.20
66140;DHT22;52945;51.908;8.364;2024-03-22T18:05:09;13.00;78.40
66140;DHT22;52945;51.908;8.364;2024-03-22T18:08:11;13.00;78.40
66140;DHT22;52945;51.908;8.364;2024-03-22T18:11:12;13.00;78.60
66140;DHT22;52945;51.908;8.364;2024-03-22T18:14:13;13.00;78.70
66140;DHT22;52945;51.908;8.364;2024-03-22T18:17:14;13.00;78.80
66140;DHT22;52945;51.908;8.364;2024-03-22T18:20:15;13.00;78.90
66140;DHT22;52945;51.908;8.364;2024-03-22T18:23:18;13.00;78.90
66140;DHT22;52945;51.908;8.364;2024-03-22T18:26:22;12.90;78.80
66140;DHT22;52945;51.908;8.364;2024-03-22T18:29:23;12.90;79.00
66140;DHT22;52945;51.908;8.364;2024-03-22T18:32:24;12.90;79.00
66140;DHT22;52945;51.908;8.364;2024-03-22T18:35:25;12.90;79.10
66140;DHT22;52945;51.908;8.364;2024-03-22T18:38:25;12.90;79.20
66140;DHT22;52945;51.908;8.364;2024-03-22T18:41:26;13.00;79.10
66140;DHT22;52945;51.908;8.364;2024-03-22T18:44:27;12.80;79.50
66140;DHT22;52945;51.908;8.364;2024-03-22T18:47:29;12.80;79.30
66140;DHT22;52945;51.908;8.364;2024-03-22T18:50:29;12.70;78.80
66140;DHT22;52945;51.908;8.364;2024-03-22T18:53:30;12.70;78.80
66140;DHT22;52945;51.908;8.364;2024-03-22T18:56:30;12.70;78.40
66140;DHT22;52945;51.908;8.364;2024-03-22T18:59:31;12.60;78.30
66140;DHT22;52945;51.908;8.364;2024-03-22T19:02:32;12.40;76.80
66140;DHT22;52945;51.908;8.364;2024-03-22T19:05:32;12.20;77.70